createdAt,value
2022-10-08T00:01:22.944Z,7.03
2022-10-08T00:04:12.571Z,6.43
2022-10-08T00:07:00.295Z,6.05
2022-10-08T00:09:49.237Z,9.25
2022-10-08T00:12:36.782Z,6.20
2022-10-08T00:15:24.065Z,6.50
2022-10-08T00:18:11.344Z,9.32
2022-10-08T00:21:06.740Z,7.38
2022-10-08T00:23:54.303Z,5.93
2022-10-08T00:26:44.565Z,7.38
2022-10-08T00:29:32.563Z,8.67
2022-10-08T00:32:21.140Z,9.18
2022-10-08T00:35:09.420Z,7.95
2022-10-08T00:37:56.646Z,6.97
2022-10-08T00:40:45.832Z,6.43
2022-10-08T00:43:44.191Z,6.73
2022-10-08T00:46:38.380Z,7.22
2022-10-08T00:49:26.218Z,9.60
2022-10-08T00:52:19.969Z,6.63
2022-10-08T00:55:10.339Z,5.35
2022-10-08T00:58:02.207Z,7.17
2022-10-08T01:00:51.694Z,6.78
2022-10-08T01:03:50.645Z,8.30
2022-10-08T01:06:45.784Z,7.00
2022-10-08T01:09:39.795Z,8.82
2022-10-08T01:12:38.805Z,5.37
2022-10-08T01:15:34.280Z,8.30
2022-10-08T01:18:23.998Z,12.43
2022-10-08T01:21:17.626Z,6.55
2022-10-08T01:24:23.081Z,6.30
2022-10-08T01:27:22.853Z,7.73
2022-10-08T01:30:16.023Z,7.10
2022-10-08T01:33:15.200Z,6.72
2022-10-08T01:36:05.344Z,9.85
2022-10-08T01:38:56.123Z,7.95
2022-10-08T01:41:49.786Z,6.70
2022-10-08T01:44:42.387Z,7.18
2022-10-08T01:47:31.864Z,9.68
2022-10-08T01:50:27.112Z,9.45
2022-10-08T01:53:17.206Z,7.05
2022-10-08T01:56:07.625Z,6.67
2022-10-08T01:59:00.457Z,8.70
2022-10-08T02:01:56.381Z,8.68
2022-10-08T02:04:43.850Z,9.70
2022-10-08T02:07:37.525Z,7.03
2022-10-08T02:10:27.746Z,5.07
2022-10-08T02:13:16.210Z,5.78
2022-10-08T02:16:11.401Z,8.77
2022-10-08T02:19:16.894Z,7.15
2022-10-08T02:22:08.155Z,8.52
2022-10-08T02:25:02.055Z,7.13
2022-10-08T02:27:57.073Z,8.10
2022-10-08T02:30:50.864Z,9.18
2022-10-08T02:33:44.669Z,10.57
2022-10-08T02:36:40.576Z,6.55
2022-10-08T02:39:32.320Z,9.27
2022-10-08T02:42:24.753Z,7.05
2022-10-08T02:45:19.063Z,6.97
2022-10-08T02:48:11.467Z,8.85
2022-10-08T02:51:04.411Z,7.32
2022-10-08T02:53:54.364Z,9.27
2022-10-08T02:56:49.015Z,10.23
2022-10-08T02:59:36.982Z,10.25
2022-10-08T03:02:31.165Z,9.57
2022-10-08T03:05:21.108Z,8.05
2022-10-08T03:08:11.957Z,10.63
2022-10-08T03:11:01.719Z,7.80
2022-10-08T03:13:52.898Z,10.30
2022-10-08T03:16:42.593Z,9.13
2022-10-08T03:19:30.945Z,12.02
2022-10-08T03:22:19.279Z,9.40
2022-10-08T03:25:07.537Z,10.43
2022-10-08T03:27:57.855Z,9.52
2022-10-08T03:30:45.506Z,6.60
2022-10-08T03:33:35.619Z,13.57
2022-10-08T03:36:24.821Z,7.93
2022-10-08T03:39:15.542Z,10.80
2022-10-08T03:42:03.247Z,8.10
2022-10-08T03:44:53.511Z,9.82
2022-10-08T03:47:41.377Z,6.88
2022-10-08T03:50:42.139Z,9.33
2022-10-08T03:53:43.021Z,9.80
2022-10-08T03:56:31.377Z,8.98
2022-10-08T03:59:19.464Z,7.50
2022-10-08T04:02:08.808Z,8.73
2022-10-08T04:04:56.308Z,10.17
2022-10-08T04:07:45.092Z,9.32
2022-10-08T04:10:32.975Z,9.90
2022-10-08T04:13:20.595Z,7.43
2022-10-08T04:16:10.407Z,6.50
2022-10-08T04:19:02.271Z,8.13
2022-10-08T04:21:51.643Z,9.68
2022-10-08T04:24:39.095Z,8.85
2022-10-08T04:27:26.881Z,7.40
2022-10-08T04:30:18.268Z,10.90
2022-10-08T04:33:05.934Z,8.03
2022-10-08T04:36:02.266Z,7.95
2022-10-08T04:38:51.162Z,9.60
2022-10-08T04:41:39.402Z,11.70
2022-10-08T04:44:27.258Z,10.68
2022-10-08T04:47:15.560Z,8.20
2022-10-08T04:50:03.882Z,10.02
2022-10-08T04:52:53.514Z,10.70
2022-10-08T04:55:41.475Z,6.72
2022-10-08T04:58:30.768Z,9.43
2022-10-08T05:01:21.881Z,9.27
2022-10-08T05:04:09.682Z,10.35
2022-10-08T05:06:57.755Z,10.23
2022-10-08T05:10:01.784Z,8.63
2022-10-08T05:12:50.599Z,8.02
2022-10-08T05:15:38.987Z,9.57
2022-10-08T05:18:36.567Z,8.65
2022-10-08T05:21:31.803Z,8.73
2022-10-08T05:24:20.065Z,10.50
2022-10-08T05:27:09.370Z,15.82
2022-10-08T05:29:57.722Z,10.93
2022-10-08T05:32:53.673Z,12.48
2022-10-08T05:35:44.182Z,9.88
2022-10-08T05:38:47.191Z,10.73
2022-10-08T05:41:36.972Z,8.57
2022-10-08T05:44:25.476Z,13.17
2022-10-08T05:47:12.960Z,9.70
2022-10-08T05:50:00.426Z,11.07
2022-10-08T05:52:47.945Z,13.02
2022-10-08T05:55:35.164Z,11.68
2022-10-08T05:58:23.359Z,8.27
2022-10-08T06:01:16.515Z,9.73
2022-10-08T06:04:08.705Z,10.25
2022-10-08T06:06:56.464Z,8.75
2022-10-08T06:09:44.990Z,9.77
2022-10-08T06:12:33.635Z,9.30
2022-10-08T06:15:21.381Z,8.55
2022-10-08T06:18:10.185Z,9.82
2022-10-08T06:20:57.846Z,11.15
2022-10-08T06:23:48.095Z,9.20
2022-10-08T06:26:37.799Z,8.73
2022-10-08T06:29:24.783Z,9.35
2022-10-08T06:32:12.360Z,9.05
2022-10-08T06:35:01.674Z,11.30
2022-10-08T06:37:49.163Z,9.45
2022-10-08T06:40:39.097Z,11.30
2022-10-08T06:43:26.562Z,9.27
2022-10-08T06:46:14.069Z,8.98
2022-10-08T06:49:02.487Z,10.65
2022-10-08T06:51:51.536Z,12.52
2022-10-08T06:54:38.895Z,9.13
2022-10-08T06:57:26.568Z,12.50
2022-10-08T07:00:15.204Z,11.55
2022-10-08T07:03:02.431Z,15.65
2022-10-08T07:05:49.927Z,13.85
2022-10-08T07:08:39.233Z,12.47
2022-10-08T07:11:27.208Z,14.23
2022-10-08T07:14:14.295Z,14.13
2022-10-08T07:17:01.960Z,14.05
2022-10-08T07:19:49.422Z,12.90
2022-10-08T07:22:36.877Z,13.47
2022-10-08T07:25:25.812Z,15.30
2022-10-08T07:28:13.304Z,14.52
2022-10-08T07:31:05.087Z,14.63
2022-10-08T07:33:53.766Z,12.30
2022-10-08T07:36:42.419Z,14.73
2022-10-08T07:39:30.113Z,13.40
2022-10-08T07:42:19.286Z,15.43
2022-10-08T07:45:07.568Z,13.48
2022-10-08T07:47:55.269Z,14.18
2022-10-08T07:50:42.435Z,13.33
2022-10-08T07:53:30.108Z,15.15
2022-10-08T07:56:18.783Z,14.18
2022-10-08T07:59:08.155Z,14.27
2022-10-08T08:01:55.143Z,12.57
2022-10-08T08:04:42.366Z,11.80
2022-10-08T08:07:30.143Z,12.70
2022-10-08T08:10:17.717Z,13.18
2022-10-08T08:13:04.789Z,11.77
2022-10-08T08:15:59.491Z,12.15
2022-10-08T08:18:48.929Z,11.73
2022-10-08T08:21:38.528Z,13.35
2022-10-08T08:24:26.399Z,10.57
2022-10-08T08:27:13.922Z,10.23
2022-10-08T08:30:01.598Z,10.18
2022-10-08T08:32:50.515Z,8.20
2022-10-08T08:35:37.969Z,11.07
2022-10-08T08:38:25.372Z,11.38
2022-10-08T08:41:27.291Z,12.65
2022-10-08T08:44:21.242Z,11.32
2022-10-08T08:47:15.123Z,11.37
2022-10-08T08:50:07.197Z,11.63
2022-10-08T08:52:55.099Z,12.45
2022-10-08T08:55:45.189Z,12.10
2022-10-08T08:58:38.878Z,13.55
2022-10-08T09:01:34.845Z,14.40
2022-10-08T09:04:27.927Z,10.75
2022-10-08T09:07:21.908Z,10.38
2022-10-08T09:10:18.649Z,10.43
2022-10-08T09:13:14.945Z,11.38
2022-10-08T09:16:02.861Z,10.40
2022-10-08T09:18:51.359Z,11.77
2022-10-08T09:21:38.819Z,9.10
2022-10-08T09:24:29.731Z,9.48
2022-10-08T09:27:17.759Z,7.97
2022-10-08T09:30:28.205Z,10.23
2022-10-08T09:33:23.510Z,7.80
2022-10-08T09:36:11.465Z,8.88
2022-10-08T09:39:00.481Z,11.00
2022-10-08T09:42:06.015Z,11.13
2022-10-08T09:44:56.806Z,8.57
2022-10-08T09:47:44.351Z,8.57
2022-10-08T09:50:31.598Z,7.53
2022-10-08T09:53:20.374Z,8.07
2022-10-08T09:56:10.041Z,8.13
2022-10-08T09:59:01.784Z,8.47
2022-10-08T10:01:49.864Z,7.75
2022-10-08T10:04:40.356Z,9.55
2022-10-08T10:07:39.164Z,11.65
2022-10-08T10:10:30.095Z,7.32
2022-10-08T10:13:23.257Z,8.33
2022-10-08T10:16:19.096Z,5.43
2022-10-08T10:19:10.563Z,6.85
2022-10-08T10:22:04.182Z,8.63
2022-10-08T10:24:56.802Z,7.75
2022-10-08T10:27:48.855Z,8.93
2022-10-08T10:30:48.558Z,7.10
2022-10-08T10:33:52.982Z,8.23
2022-10-08T10:36:44.469Z,9.57
2022-10-08T10:39:37.507Z,8.10
2022-10-08T10:42:32.074Z,7.73
2022-10-08T10:45:24.571Z,7.32
2022-10-08T10:48:15.493Z,6.95
2022-10-08T10:51:23.945Z,9.95
2022-10-08T10:54:28.046Z,6.88
2022-10-08T10:57:25.680Z,9.37
2022-10-08T11:00:21.664Z,8.25
2022-10-08T11:03:15.862Z,6.35
2022-10-08T11:06:18.775Z,6.85
2022-10-08T11:09:13.875Z,6.43
2022-10-08T11:12:05.795Z,6.37
2022-10-08T11:15:02.733Z,7.03
2022-10-08T11:18:09.594Z,8.15
2022-10-08T11:21:06.915Z,5.90
2022-10-08T11:24:16.607Z,6.25
2022-10-08T11:27:14.004Z,7.30
2022-10-08T11:30:06.590Z,7.78
2022-10-08T11:32:58.043Z,5.53
2022-10-08T11:35:55.021Z,8.70
2022-10-08T11:38:50.113Z,5.53
2022-10-08T11:41:47.901Z,6.77
2022-10-08T11:44:37.467Z,6.63
2022-10-08T11:47:49.196Z,9.50
2022-10-08T11:50:37.873Z,8.68
2022-10-08T11:53:25.694Z,5.78
2022-10-08T11:56:20.923Z,9.37
2022-10-08T11:59:26.675Z,4.95
2022-10-08T12:02:25.420Z,3.90
2022-10-08T12:05:45.528Z,8.88
2022-10-08T12:08:53.431Z,6.32
2022-10-08T12:11:52.490Z,7.50
2022-10-08T12:14:49.044Z,5.07
2022-10-08T12:17:55.094Z,6.60
2022-10-08T12:20:43.556Z,6.25
2022-10-08T12:23:40.252Z,8.85
2022-10-08T12:26:27.657Z,4.77
2022-10-08T12:29:28.289Z,3.95
2022-10-08T12:32:17.134Z,8.70
2022-10-08T12:35:04.914Z,4.63
2022-10-08T12:38:28.628Z,4.35
2022-10-08T12:41:22.843Z,3.80
2022-10-08T12:44:25.430Z,4.95
2022-10-08T12:47:26.144Z,4.78
2022-10-08T12:50:31.583Z,4.85
2022-10-08T12:53:19.816Z,7.82
2022-10-08T12:56:08.325Z,4.67
2022-10-08T12:58:58.221Z,4.30
2022-10-08T13:01:48.840Z,5.40
2022-10-08T13:04:38.471Z,4.60
2022-10-08T13:07:28.408Z,4.95
2022-10-08T13:10:20.165Z,6.57
2022-10-08T13:13:27.726Z,5.97
2022-10-08T13:16:17.485Z,3.72
2022-10-08T13:19:18.694Z,5.53
2022-10-08T13:22:09.151Z,5.32
2022-10-08T13:24:56.094Z,7.57
2022-10-08T13:27:43.733Z,5.63
2022-10-08T13:30:31.394Z,6.40
2022-10-08T13:33:22.005Z,5.47
2022-10-08T13:36:23.544Z,4.30
2022-10-08T13:39:22.649Z,5.43
2022-10-08T13:42:15.935Z,7.95
2022-10-08T13:45:05.929Z,5.70
2022-10-08T13:47:53.786Z,4.30
2022-10-08T13:50:44.598Z,4.38
2022-10-08T13:53:32.251Z,3.37
2022-10-08T13:56:24.479Z,5.07
2022-10-08T13:59:12.168Z,4.80
2022-10-08T14:02:00.043Z,4.47
2022-10-08T14:04:47.864Z,4.47
2022-10-08T14:07:37.022Z,5.27
2022-10-08T14:10:24.923Z,6.60
2022-10-08T14:13:15.291Z,6.00
2022-10-08T14:16:02.679Z,3.03
2022-10-08T14:18:50.402Z,4.40
2022-10-08T14:21:39.181Z,3.83
2022-10-08T14:24:27.065Z,3.75
2022-10-08T14:27:14.440Z,8.57
2022-10-08T14:30:02.898Z,5.18
2022-10-08T14:32:50.596Z,4.90
2022-10-08T14:35:38.394Z,4.33
2022-10-08T14:38:26.624Z,3.17
2022-10-08T14:41:16.853Z,3.50
2022-10-08T14:44:04.820Z,3.70
2022-10-08T14:46:54.094Z,3.45
2022-10-08T14:49:41.831Z,3.13
2022-10-08T14:52:29.801Z,3.50
2022-10-08T14:55:17.127Z,2.60
2022-10-08T14:58:04.943Z,2.95
2022-10-08T15:00:56.504Z,2.90
2022-10-08T15:03:46.027Z,2.50
2022-10-08T15:06:34.456Z,2.67
2022-10-08T15:09:21.764Z,3.22
2022-10-08T15:12:09.386Z,5.05
2022-10-08T15:14:56.813Z,3.40
2022-10-08T15:17:44.936Z,3.93
2022-10-08T15:20:34.326Z,4.38
2022-10-08T15:23:22.230Z,4.32
2022-10-08T15:26:14.929Z,3.63
2022-10-08T15:29:02.926Z,2.90
2022-10-08T15:31:51.144Z,4.03
2022-10-08T15:34:38.797Z,5.30
2022-10-08T15:37:27.729Z,5.72
2022-10-08T15:40:15.845Z,3.60
2022-10-08T15:43:03.443Z,5.50
2022-10-08T15:45:51.005Z,5.03
2022-10-08T15:48:38.727Z,6.72
2022-10-08T15:51:26.376Z,6.10
2022-10-08T15:54:15.650Z,3.47
2022-10-08T15:57:02.808Z,5.65
2022-10-08T15:59:50.160Z,5.27
2022-10-08T16:02:37.932Z,6.03
2022-10-08T16:05:25.456Z,3.92
2022-10-08T16:08:13.241Z,5.47
2022-10-08T16:11:11.284Z,4.55
2022-10-08T16:14:01.904Z,4.00
2022-10-08T16:16:50.172Z,4.22
2022-10-08T16:19:37.893Z,5.07
2022-10-08T16:22:25.732Z,4.95
2022-10-08T16:25:13.183Z,4.70
2022-10-08T16:28:02.769Z,4.13
2022-10-08T16:30:51.174Z,5.95
2022-10-08T16:33:38.775Z,5.88
2022-10-08T16:36:27.891Z,6.60
2022-10-08T16:39:17.959Z,6.13
2022-10-08T16:42:05.764Z,4.23
2022-10-08T16:44:54.325Z,4.38
2022-10-08T16:47:42.171Z,6.55
2022-10-08T16:50:30.259Z,6.93
2022-10-08T16:53:17.882Z,5.95
2022-10-08T16:56:06.425Z,4.07
2022-10-08T16:58:54.753Z,4.97
2022-10-08T17:01:45.973Z,5.78
2022-10-08T17:04:39.332Z,4.30
2022-10-08T17:07:26.908Z,5.22
2022-10-08T17:10:14.075Z,6.53
2022-10-08T17:13:01.288Z,5.10
2022-10-08T17:15:58.582Z,5.32
2022-10-08T17:18:47.985Z,4.65
2022-10-08T17:21:35.973Z,6.43
2022-10-08T17:24:23.364Z,5.57
2022-10-08T17:27:11.871Z,4.60
2022-10-08T17:29:59.736Z,6.00
2022-10-08T17:32:47.705Z,6.53
2022-10-08T17:35:36.216Z,6.28
2022-10-08T17:38:23.979Z,5.23
2022-10-08T17:41:13.573Z,4.53
2022-10-08T17:44:03.798Z,6.43
2022-10-08T17:46:52.268Z,7.43
2022-10-08T17:49:40.041Z,5.35
2022-10-08T17:52:29.527Z,5.07
2022-10-08T17:55:17.779Z,7.63
2022-10-08T17:58:05.546Z,7.10
2022-10-08T18:00:53.128Z,6.10
2022-10-08T18:03:42.494Z,5.30
2022-10-08T18:06:31.993Z,6.13
2022-10-08T18:09:22.408Z,6.57
2022-10-08T18:12:10.262Z,7.22
2022-10-08T18:14:57.972Z,6.80
2022-10-08T18:17:45.655Z,6.72
2022-10-08T18:20:33.680Z,6.67
2022-10-08T18:23:21.562Z,9.20
2022-10-08T18:26:13.497Z,6.28
2022-10-08T18:29:02.885Z,6.63
2022-10-08T18:31:51.168Z,6.82
2022-10-08T18:34:38.389Z,7.53
2022-10-08T18:37:25.845Z,9.13
2022-10-08T18:40:13.557Z,6.05
2022-10-08T18:43:01.987Z,6.43
2022-10-08T18:45:49.039Z,6.28
2022-10-08T18:48:38.049Z,7.17
2022-10-08T18:51:28.231Z,7.18
2022-10-08T18:54:15.843Z,6.22
2022-10-08T18:57:03.126Z,6.47
2022-10-08T18:59:52.045Z,8.07
2022-10-08T19:02:39.979Z,4.37
2022-10-08T19:05:27.773Z,5.30
2022-10-08T19:08:15.493Z,8.38
2022-10-08T19:11:10.395Z,7.53
2022-10-08T19:13:57.997Z,6.10
2022-10-08T19:16:47.333Z,5.50
2022-10-08T19:19:34.666Z,6.32
2022-10-08T19:22:22.248Z,6.70
2022-10-08T19:25:09.896Z,7.18
2022-10-08T19:27:58.126Z,7.85
2022-10-08T19:30:47.205Z,7.27
2022-10-08T19:33:36.248Z,7.10
2022-10-08T19:36:25.114Z,5.95
2022-10-08T19:39:14.118Z,5.63
2022-10-08T19:42:01.365Z,4.78
2022-10-08T19:44:48.956Z,6.03
2022-10-08T19:47:36.511Z,7.00
2022-10-08T19:50:25.509Z,5.80
2022-10-08T19:53:14.701Z,6.25
2022-10-08T19:56:04.557Z,6.43
2022-10-08T19:58:53.505Z,7.13
2022-10-08T20:01:42.607Z,6.20
2022-10-08T20:04:30.021Z,6.65
2022-10-08T20:07:18.973Z,6.07
2022-10-08T20:10:07.684Z,5.82
2022-10-08T20:12:55.626Z,9.27
2022-10-08T20:15:46.415Z,5.22
2022-10-08T20:18:36.884Z,7.63
2022-10-08T20:21:24.760Z,5.80
2022-10-08T20:24:14.845Z,8.15
2022-10-08T20:27:02.527Z,5.50
2022-10-08T20:29:49.563Z,6.25
2022-10-08T20:32:37.568Z,6.68
2022-10-08T20:35:25.156Z,6.15
2022-10-08T20:38:12.590Z,7.80
2022-10-08T20:41:01.238Z,6.13
2022-10-08T20:43:50.031Z,8.07
2022-10-08T20:46:38.899Z,5.85
2022-10-08T20:49:26.245Z,5.72
2022-10-08T20:52:13.907Z,6.15
2022-10-08T20:55:01.689Z,5.93
2022-10-08T20:57:50.546Z,7.70
2022-10-08T21:00:38.184Z,6.30
2022-10-08T21:03:25.800Z,5.78
2022-10-08T21:06:15.737Z,5.88
2022-10-08T21:09:03.387Z,8.33
2022-10-08T21:11:51.209Z,8.52
2022-10-08T21:14:39.827Z,6.25
2022-10-08T21:17:27.673Z,6.65
2022-10-08T21:20:14.983Z,6.65
2022-10-08T21:23:02.213Z,6.10
2022-10-08T21:25:49.624Z,6.53
2022-10-08T21:28:37.564Z,7.30
2022-10-08T21:31:27.775Z,7.03
2022-10-08T21:34:16.204Z,8.27
2022-10-08T21:37:03.842Z,6.40
2022-10-08T21:39:52.395Z,7.28
2022-10-08T21:42:39.784Z,7.30
2022-10-08T21:45:27.421Z,6.72
2022-10-08T21:48:15.924Z,7.82
2022-10-08T21:51:06.126Z,7.13
2022-10-08T21:53:55.456Z,9.43
2022-10-08T21:56:43.551Z,7.18
2022-10-08T21:59:31.254Z,8.55
2022-10-08T22:02:18.793Z,7.45
2022-10-08T22:05:07.886Z,9.40
2022-10-08T22:07:55.133Z,7.15
2022-10-08T22:10:42.689Z,8.82
2022-10-08T22:13:30.412Z,6.15
2022-10-08T22:16:19.251Z,7.30
2022-10-08T22:19:06.552Z,8.60
2022-10-08T22:21:55.569Z,8.13
2022-10-08T22:24:42.785Z,6.72
2022-10-08T22:27:30.741Z,7.70
2022-10-08T22:30:18.898Z,7.63
2022-10-08T22:33:06.448Z,7.30
2022-10-08T22:35:53.943Z,10.73
2022-10-08T22:38:44.275Z,6.85
2022-10-08T22:41:33.397Z,7.88
2022-10-08T22:44:20.882Z,8.45
2022-10-08T22:47:08.364Z,7.27
2022-10-08T22:49:55.546Z,5.95
2022-10-08T22:52:45.887Z,7.32
2022-10-08T22:55:34.837Z,7.30
2022-10-08T22:58:22.781Z,6.28
2022-10-08T23:01:13.137Z,7.13
2022-10-08T23:04:00.649Z,6.18
2022-10-08T23:06:47.784Z,5.70
2022-10-08T23:09:35.235Z,6.55
2022-10-08T23:12:24.364Z,7.20
2022-10-08T23:15:11.583Z,5.27
2022-10-08T23:17:58.567Z,6.05
2022-10-08T23:20:46.299Z,6.22
2022-10-08T23:23:34.857Z,8.02
2022-10-08T23:26:23.205Z,5.93
2022-10-08T23:29:13.079Z,5.53
2022-10-08T23:32:00.741Z,6.68
2022-10-08T23:34:48.548Z,6.35
2022-10-08T23:37:36.132Z,7.03
2022-10-08T23:40:23.717Z,7.72
2022-10-08T23:43:11.129Z,7.23
2022-10-08T23:46:00.476Z,7.63
2022-10-08T23:48:48.540Z,7.53
2022-10-08T23:51:36.025Z,7.53
2022-10-08T23:54:23.637Z,8.07
2022-10-08T23:57:11.154Z,5.40
2022-10-08T23:59:58.490Z,6.35
